Hlavní strana
METAR-TAF:

METAR-TAF

Letiště :

Nador, Maroko

zeměpisná šířka: 34-59-20N, zeměpisná délka: 003-01-42W, výška: 175 m

Aktuální stav počasí

Zpráva byla vytvořena před 1 hodinou a 9 minutami, v 09:00 UTC
vítr z různých směrů 2 kt
Teplota 16°C
Vlhkost vzduchu 72%
Tlak 1022 hPa
Viditelnost: 6000 m
Zataženo ve výšce 2000 ft

METAR: GMMW 060900Z VRB02KT 6000 OVC020 16/11 Q1022 NOSIG

Čas: 11:09 (10:09 UTC)

Předpověď počasí

Zpráva byla vytvořena před 5 hodinami a 9 minutami, v 05:00 UTC
Předpověď platná od 06 v 06 UTC do 07 v 12 UTC
vítr z různých směrů 2 kt
Viditelnost: 8000 m
Skoro jasno ve výšce 2000 ft
Pravděpodobnost 40%
od 06 v 06 UTC do 06 v 08 UTC
Viditelnost: 2000 m
Oblačno až skoro zataženo ve výšce 300 ft
kouřmo

TAF: GMMW 060500Z 0606/0712 VRB02KT 8000 FEW020 PROB40 0606/0608 2000 BR BKN003

Stav a předpovědi počasí z více než 4 000 letišť (zprávy METAR a TAF).

Červené a žluté tečky na mapě představují dostupné meteorologické stanice.

Když kurzor umístíte na tečku, zobrazí se název stanice.

Pak kliknutím zobrazíte stav a předpověď počasí.

Chcete-li změnit mapu, kliknutím na zelené tlačítko se znaménkem +mapu přiblížíte, kliknutím na zelené tlačítko se znaménkem – mapu oddálíte a kliknutím na zelené šipky přejdete na sousední mapy.


METAR-TAF: